Time;durP1;ratioP1;P1;durP2;ratioP2;P2;SDS_P1;SDS_P2;PMS_P1;PMS_P2;Temp;Humidity;BMP_temperature;BMP_pressure;BME280_temperature;BME280_humidity;BME280_pressure;Samples;Min_cycle;Max_cycle;Signal;HPM_P1;HPM_P2
2022/04/01 00:02:24;;;;;;;1.83;0.82;;;3.10;95.20;;;;;;4966964;28;20281;-77
2022/04/01 00:04:50;;;;;;;2.17;0.68;;;3.10;95.60;;;;;;4966288;28;20043;-77
2022/04/01 00:07:17;;;;;;;4.10;0.80;;;3.10;94.50;;;;;;4981532;28;20055;-78
2022/04/01 00:09:43;;;;;;;2.60;0.82;;;3.10;94.20;;;;;;4967529;28;20026;-77
2022/04/01 00:12:09;;;;;;;1.83;0.90;;;3.10;92.20;;;;;;4966174;28;20509;-77
2022/04/01 00:14:36;;;;;;;3.72;0.80;;;3.00;94.30;;;;;;4949341;28;20621;-78
2022/04/01 00:17:02;;;;;;;2.05;0.90;;;3.00;94.80;;;;;;4983959;28;20109;-78
2022/04/01 00:19:28;;;;;;;1.35;0.70;;;3.00;94.90;;;;;;4965308;28;20521;-78
2022/04/01 00:21:55;;;;;;;2.00;0.90;;;3.00;94.80;;;;;;4967453;28;20396;-77
2022/04/01 00:24:21;;;;;;;3.17;0.85;;;3.00;94.90;;;;;;4990850;28;20027;-78
2022/04/01 00:26:48;;;;;;;2.35;0.70;;;3.00;96.30;;;;;;4969192;28;20025;-78
2022/04/01 00:29:17;;;;;;;1.58;0.60;;;3.00;95.10;;;;;;4983932;28;20513;-78
2022/04/01 00:31:48;;;;;;;1.80;0.70;;;3.00;93.60;;;;;;4984847;28;20504;-78
2022/04/01 00:34:15;;;;;;;3.10;1.00;;;3.00;95.70;;;;;;4969894;28;20041;-79
2022/04/01 00:36:46;;;;;;;2.28;0.90;;;3.00;93.10;;;;;;4966644;28;20031;-77
2022/04/01 00:39:13;;;;;;;2.72;0.70;;;3.00;93.40;;;;;;4966904;28;20061;-77
2022/04/01 00:41:39;;;;;;;3.20;1.08;;;3.00;95.10;;;;;;4988590;28;20514;-78
2022/04/01 00:44:15;;;;;;;2.85;0.82;;;3.00;94.30;;;;;;4984143;28;20082;-78
2022/04/01 00:46:46;;;;;;;2.20;0.82;;;3.00;94.80;;;;;;4980137;28;20282;-78
2022/04/01 00:49:12;;;;;;;2.47;0.80;;;3.00;94.00;;;;;;4972677;28;20499;-78
2022/04/01 00:51:41;;;;;;;4.95;1.15;;;3.00;93.90;;;;;;4964144;28;20034;-77
2022/04/01 00:54:08;;;;;;;2.05;0.80;;;3.00;95.80;;;;;;4947821;28;20026;-77
2022/04/01 00:56:35;;;;;;;1.95;0.70;;;3.00;96.30;;;;;;4961913;28;20039;-77
2022/04/01 00:59:02;;;;;;;0.98;0.60;;;3.00;95.60;;;;;;4984457;28;20042;-78
2022/04/01 01:01:30;;;;;;;2.72;1.15;;;3.00;94.80;;;;;;4970823;28;20030;-78
2022/04/01 01:04:00;;;;;;;4.40;0.95;;;3.00;93.90;;;;;;4966476;28;20026;-77
2022/04/01 01:06:26;;;;;;;1.85;0.80;;;3.00;94.50;;;;;;4978683;28;20023;-77
2022/04/01 01:08:53;;;;;;;2.40;1.02;;;3.00;96.50;;;;;;4968400;28;20037;-77
2022/04/01 01:11:20;;;;;;;2.67;0.82;;;3.00;95.50;;;;;;4967059;28;20112;-78
2022/04/01 01:13:46;;;;;;;1.45;0.80;;;3.00;95.80;;;;;;4983309;28;20050;-78
2022/04/01 01:16:11;;;;;;;1.38;0.68;;;3.00;96.30;;;;;;4969896;28;20076;-77
2022/04/01 01:18:37;;;;;;;1.98;1.13;;;3.00;95.20;;;;;;4967360;28;20030;-77
2022/04/01 01:21:03;;;;;;;1.98;0.93;;;3.00;95.00;;;;;;4967399;28;20491;-78
2022/04/01 01:23:32;;;;;;;4.43;1.10;;;3.00;96.50;;;;;;4972676;28;20026;-77
2022/04/01 01:25:58;;;;;;;1.40;0.88;;;3.00;95.70;;;;;;4959178;28;20026;-78
2022/04/01 01:28:24;;;;;;;2.90;1.10;;;3.00;97.80;;;;;;4994544;28;20051;-78
2022/04/01 01:30:50;;;;;;;2.65;0.90;;;2.90;96.70;;;;;;4957025;28;20105;-78
2022/04/01 01:33:20;;;;;;;4.63;1.08;;;2.90;96.90;;;;;;4985249;28;20034;-77
2022/04/01 01:35:46;;;;;;;1.83;0.90;;;2.90;96.60;;;;;;4971094;28;20407;-77
2022/04/01 01:38:12;;;;;;;2.85;0.80;;;3.00;97.20;;;;;;4969566;28;20549;-77
2022/04/01 01:40:37;;;;;;;2.63;0.93;;;3.00;95.00;;;;;;4953517;28;20035;-77
2022/04/01 01:43:03;;;;;;;2.67;0.70;;;3.00;94.50;;;;;;4969184;28;20026;-78
2022/04/01 01:45:29;;;;;;;1.70;1.00;;;3.00;96.40;;;;;;4971573;28;20049;-77
2022/04/01 01:47:56;;;;;;;2.55;0.93;;;2.90;96.40;;;;;;4968686;28;20026;-78
2022/04/01 01:55:51;;;;;;;2.75;1.00;;;2.90;96.70;;;;;;4985727;28;20041;-78
2022/04/01 01:58:18;;;;;;;5.13;0.90;;;3.00;96.80;;;;;;4987717;28;20399;-77
2022/04/01 02:00:45;;;;;;;1.60;0.90;;;3.00;96.10;;;;;;4982284;28;20047;-78
2022/04/01 02:03:12;;;;;;;3.72;0.80;;;2.90;96.50;;;;;;4978244;28;20109;-77
2022/04/01 02:05:38;;;;;;;1.52;0.80;;;3.00;98.40;;;;;;4997082;28;20038;-78
2022/04/01 02:08:05;;;;;;;2.55;0.70;;;2.90;96.90;;;;;;4972664;28;20027;-77
2022/04/01 02:10:32;;;;;;;3.15;0.80;;;2.90;96.80;;;;;;4993670;28;20132;-78
2022/04/01 02:12:58;;;;;;;1.65;0.73;;;2.90;96.10;;;;;;4978225;28;21030;-78
2022/04/01 02:15:24;;;;;;;2.15;0.90;;;2.90;98.00;;;;;;4978596;28;20026;-79
2022/04/01 02:17:50;;;;;;;1.73;0.70;;;2.80;97.70;;;;;;5006193;28;20406;-78
2022/04/01 02:20:16;;;;;;;5.55;0.80;;;2.80;97.90;;;;;;4976225;28;20031;-78
2022/04/01 02:22:44;;;;;;;2.38;0.73;;;2.90;99.10;;;;;;4976456;28;20023;-79
2022/04/01 02:25:11;;;;;;;1.30;0.70;;;3.00;97.40;;;;;;4995671;28;20034;-78
2022/04/01 02:27:38;;;;;;;1.00;0.60;;;2.90;97.60;;;;;;4975773;28;20517;-79
2022/04/01 02:30:10;;;;;;;3.47;0.75;;;2.90;97.80;;;;;;4981456;28;20099;-78
2022/04/01 02:32:40;;;;;;;3.53;0.80;;;2.90;97.50;;;;;;4961398;28;20089;-78
2022/04/01 02:35:07;;;;;;;3.10;0.70;;;2.90;98.90;;;;;;4977421;28;20037;-79
2022/04/01 02:37:33;;;;;;;1.73;0.60;;;2.90;97.80;;;;;;4957695;28;20058;-79
2022/04/01 02:39:59;;;;;;;1.73;0.65;;;2.90;97.50;;;;;;4980870;28;20022;-78
2022/04/01 02:42:25;;;;;;;1.80;0.55;;;2.90;98.90;;;;;;4986445;28;20041;-79
2022/04/01 02:44:51;;;;;;;1.80;0.70;;;2.90;98.30;;;;;;4975764;28;20441;-79
2022/04/01 02:47:16;;;;;;;3.72;0.65;;;2.90;99.20;;;;;;4957686;28;20023;-78
2022/04/01 02:49:42;;;;;;;2.53;0.80;;;2.90;98.50;;;;;;4967164;28;20031;-78
2022/04/01 02:52:08;;;;;;;1.65;0.80;;;2.90;97.90;;;;;;4982933;28;20037;-78
2022/04/01 02:54:34;;;;;;;2.88;1.48;;;2.90;99.10;;;;;;4980529;28;20030;-78
2022/04/01 02:57:02;;;;;;;4.45;1.20;;;2.80;99.10;;;;;;4966615;28;20489;-78
2022/04/01 02:59:29;;;;;;;1.63;0.50;;;2.90;98.20;;;;;;4984701;28;20852;-77
2022/04/01 03:01:55;;;;;;;1.25;0.50;;;2.90;97.60;;;;;;4953820;28;20490;-77
2022/04/01 03:04:21;;;;;;;3.17;0.60;;;2.90;99.40;;;;;;4970157;28;20037;-78
2022/04/01 03:06:47;;;;;;;3.80;0.80;;;2.80;99.20;;;;;;4951404;28;20023;-78
2022/04/01 03:09:13;;;;;;;3.25;0.70;;;2.80;99.10;;;;;;4969771;28;20093;-78
2022/04/01 03:11:39;;;;;;;2.70;0.68;;;2.80;99.20;;;;;;4967866;28;20039;-78
2022/04/01 03:14:06;;;;;;;2.58;0.75;;;2.90;98.20;;;;;;4967024;28;20035;-78
2022/04/01 03:16:32;;;;;;;2.97;0.70;;;2.80;98.70;;;;;;4981419;28;20046;-78
2022/04/01 03:18:59;;;;;;;3.70;0.90;;;2.80;98.60;;;;;;4968607;28;20110;-78
2022/04/01 03:21:26;;;;;;;3.42;0.90;;;2.80;98.30;;;;;;4984436;28;20039;-78
2022/04/01 03:23:52;;;;;;;2.90;0.75;;;2.80;98.30;;;;;;4951645;28;20034;-78
2022/04/01 03:26:20;;;;;;;2.10;0.70;;;2.80;98.50;;;;;;4968963;28;20035;-78
2022/04/01 03:28:46;;;;;;;2.25;0.95;;;2.80;98.40;;;;;;4985297;28;20030;-78
2022/04/01 03:31:14;;;;;;;3.92;1.33;;;2.80;98.80;;;;;;4963852;28;20614;-79
2022/04/01 03:33:41;;;;;;;2.78;0.85;;;2.90;98.60;;;;;;4967350;28;20038;-78
2022/04/01 03:36:08;;;;;;;4.18;1.08;;;2.90;97.90;;;;;;4967895;28;20040;-78
2022/04/01 03:38:36;;;;;;;3.13;0.80;;;2.80;97.40;;;;;;4967972;28;20053;-78
2022/04/01 03:41:03;;;;;;;3.80;0.90;;;2.80;99.90;;;;;;4974307;28;20026;-78
2022/04/01 03:43:29;;;;;;;2.40;1.10;;;2.80;97.20;;;;;;4952430;28;20034;-78
2022/04/01 03:45:58;;;;;;;3.88;1.00;;;2.80;96.90;;;;;;4968035;28;20030;-78
2022/04/01 03:48:42;;;;;;;3.20;1.13;;;2.80;97.30;;;;;;4949450;28;20027;-78
2022/04/01 03:51:09;;;;;;;3.08;1.00;;;2.80;98.90;;;;;;4965794;28;20037;-78
2022/04/01 03:53:37;;;;;;;3.05;1.30;;;2.80;97.50;;;;;;4966248;28;20131;-78
2022/04/01 03:56:06;;;;;;;6.15;1.15;;;2.80;98.40;;;;;;4953051;28;20030;-79
2022/04/01 03:58:34;;;;;;;1.73;1.20;;;2.80;98.80;;;;;;4973539;28;20050;-78
2022/04/01 04:01:03;;;;;;;5.22;1.10;;;2.80;98.90;;;;;;4966672;28;20105;-78
2022/04/01 04:03:31;;;;;;;5.35;1.38;;;2.80;98.20;;;;;;4966182;28;20035;-78
2022/04/01 04:05:58;;;;;;;5.18;1.40;;;2.80;99.90;;;;;;4985680;28;20130;-77
2022/04/01 04:08:24;;;;;;;4.78;1.50;;;2.80;98.60;;;;;;4966299;28;20027;-78
2022/04/01 04:10:52;;;;;;;3.22;1.10;;;2.90;97.90;;;;;;4982647;28;20030;-77
2022/04/01 04:13:19;;;;;;;6.55;1.55;;;2.80;98.80;;;;;;4985436;28;20022;-77
2022/04/01 04:16:04;;;;;;;2.78;1.60;;;2.80;99.20;;;;;;4967769;28;20032;-78
2022/04/01 04:18:40;;;;;;;4.20;1.50;;;2.90;99.90;;;;;;4951084;28;20038;-77
2022/04/01 04:21:25;;;;;;;2.33;1.50;;;2.90;99.50;;;;;;4990510;28;20031;-78
2022/04/01 04:24:01;;;;;;;2.28;1.50;;;2.90;99.90;;;;;;4969819;28;20442;-78
2022/04/01 04:26:32;;;;;;;2.42;1.38;;;2.90;99.90;;;;;;4951610;28;20022;-78
2022/04/01 04:29:08;;;;;;;;;;;2.90;99.90;;;;;;4964412;28;20105;-78
2022/04/01 04:31:36;;;;;;;5.35;1.85;;;2.90;99.90;;;;;;4967602;28;19914;-77
2022/04/01 04:34:04;;;;;;;5.22;1.92;;;2.90;99.90;;;;;;4965496;28;20051;-77
2022/04/01 04:36:36;;;;;;;3.92;1.42;;;2.90;99.90;;;;;;4963902;28;20035;-77
2022/04/01 04:39:05;;;;;;;3.65;1.70;;;2.90;99.90;;;;;;4980743;28;20101;-77
2022/04/01 04:41:32;;;;;;;2.88;1.55;;;2.90;99.90;;;;;;4986109;28;20038;-77
2022/04/01 04:43:58;;;;;;;4.07;1.60;;;2.90;99.90;;;;;;4982151;28;20033;-77
2022/04/01 04:46:26;;;;;;;4.80;1.90;;;2.90;99.90;;;;;;4987185;28;20038;-77
2022/04/01 04:48:54;;;;;;;4.18;1.58;;;2.90;99.90;;;;;;4980233;28;20049;-77
2022/04/01 04:51:24;;;;;;;5.82;1.67;;;2.90;99.90;;;;;;4975504;28;20038;-77
2022/04/01 04:53:50;;;;;;;4.53;1.73;;;2.90;99.90;;;;;;4971489;28;20455;-78
2022/04/01 04:56:18;;;;;;;5.10;1.80;;;2.90;99.90;;;;;;4968840;28;20026;-78
2022/04/01 04:58:44;;;;;;;6.85;2.08;;;2.90;99.90;;;;;;4970000;28;20661;-77
2022/04/01 05:01:16;;;;;;;10.18;2.20;;;2.90;99.90;;;;;;4968141;28;20521;-78
2022/04/01 05:04:01;;;;;;;6.43;1.92;;;2.90;99.90;;;;;;4990393;28;20038;-77
2022/04/01 05:06:34;;;;;;;4.68;1.90;;;2.90;99.90;;;;;;4975240;28;20034;-79
2022/04/01 05:09:05;;;;;;;4.90;2.20;;;2.90;99.90;;;;;;4978864;28;20030;-80
2022/04/01 05:11:44;;;;;;;4.55;2.17;;;2.90;99.90;;;;;;4971628;28;20509;-78
2022/04/01 05:14:53;;;;;;;5.03;1.90;;;2.90;99.90;;;;;;4956901;28;20066;-79
2022/04/01 05:17:52;;;;;;;4.70;1.90;;;3.00;99.90;;;;;;4988559;28;20034;-78
2022/04/01 05:20:24;;;;;;;6.32;2.53;;;2.90;99.90;;;;;;4970523;28;20034;-78
2022/04/01 05:23:06;;;;;;;4.60;1.90;;;2.90;99.90;;;;;;4987475;28;20102;-78
2022/04/01 05:25:40;;;;;;;3.20;1.90;;;2.90;99.90;;;;;;4968971;28;20050;-79
2022/04/01 05:28:16;;;;;;;5.78;2.45;;;3.00;99.90;;;;;;4986145;28;20401;-78
2022/04/01 05:30:44;;;;;;;5.50;1.98;;;3.00;99.90;;;;;;4970225;28;20080;-78
2022/04/01 05:33:16;;;;;;;5.60;2.10;;;3.00;99.90;;;;;;4984591;28;20402;-78
2022/04/01 05:35:44;;;;;;;9.15;2.15;;;3.00;99.90;;;;;;4969421;28;20394;-78
2022/04/01 05:38:10;;;;;;;4.38;2.00;;;3.10;99.90;;;;;;4966560;28;20022;-77
2022/04/01 05:40:37;;;;;;;3.83;2.17;;;3.10;99.90;;;;;;4966345;28;20019;-79
2022/04/01 05:43:07;;;;;;;4.45;2.30;;;3.00;99.90;;;;;;4966117;28;20044;-79
2022/04/01 05:45:32;;;;;;;5.50;2.22;;;3.20;99.90;;;;;;4967696;28;20107;-78
2022/04/01 05:47:59;;;;;;;14.60;2.50;;;3.10;99.90;;;;;;4974374;28;20054;-78
2022/04/01 05:50:28;;;;;;;5.22;2.47;;;3.20;99.90;;;;;;4953181;28;20084;-79
2022/04/01 05:52:54;;;;;;;4.55;2.08;;;3.10;99.90;;;;;;4953745;28;20339;-77
2022/04/01 05:55:25;;;;;;;4.10;2.15;;;3.20;99.90;;;;;;4985291;28;20190;-78
2022/04/01 05:57:55;;;;;;;7.97;2.80;;;3.10;99.90;;;;;;4984150;28;20103;-78
2022/04/01 06:00:20;;;;;;;5.22;3.03;;;3.10;99.90;;;;;;4973931;28;20041;-78
2022/04/01 06:03:08;;;;;;;8.38;2.63;;;3.10;99.90;;;;;;4979086;28;20031;-78
2022/04/01 06:05:45;;;;;;;5.45;2.40;;;3.20;99.90;;;;;;4978508;28;20026;-78
2022/04/01 06:08:48;;;;;;;9.60;2.90;;;3.20;99.90;;;;;;4971920;28;20019;-78
2022/04/01 06:11:27;;;;;;;5.85;2.40;;;3.30;99.90;;;;;;4971826;28;20482;-78
2022/04/01 06:14:22;;;;;;;7.38;2.45;;;3.30;99.90;;;;;;4967172;28;20026;-78
2022/04/01 06:17:00;;;;;;;9.07;3.20;;;3.20;99.90;;;;;;4948249;28;20117;-79
2022/04/01 06:19:40;;;;;;;8.55;2.70;;;3.30;99.90;;;;;;4968984;28;20038;-78
2022/04/01 06:22:12;;;;;;;7.10;2.72;;;3.30;99.90;;;;;;4971267;28;20038;-78
2022/04/01 06:25:01;;;;;;;6.32;2.42;;;3.40;99.90;;;;;;4954457;28;20018;-79
2022/04/01 06:27:42;;;;;;;6.50;2.47;;;3.40;99.90;;;;;;4970871;28;20030;-79
2022/04/01 06:30:10;;;;;;;4.05;2.17;;;3.40;99.90;;;;;;4983995;28;20042;-78
2022/04/01 06:32:40;;;;;;;4.88;2.67;;;3.40;99.90;;;;;;4966409;28;20108;-78
2022/04/01 06:35:25;;;;;;;7.43;2.67;;;3.40;99.90;;;;;;4971468;28;20030;-78
2022/04/01 06:38:08;;;;;;;5.95;2.58;;;3.40;99.90;;;;;;4989542;28;20046;-79
2022/04/01 06:40:55;;;;;;;8.40;3.03;;;3.50;99.90;;;;;;4975575;28;20027;-78
2022/04/01 06:43:22;;;;;;;5.93;2.38;;;3.40;99.90;;;;;;4970946;28;20058;-80
2022/04/01 06:45:48;;;;;;;5.45;2.50;;;3.50;99.90;;;;;;4971555;28;20034;-77
2022/04/01 06:48:14;;;;;;;5.50;2.60;;;3.50;99.90;;;;;;4972453;28;20027;-78
2022/04/01 06:50:49;;;;;;;4.63;2.17;;;3.60;99.90;;;;;;4976288;28;20022;-77
2022/04/01 06:53:19;;;;;;;6.50;2.80;;;3.60;99.90;;;;;;4970229;28;20034;-77
2022/04/01 06:55:46;;;;;;;5.28;2.80;;;3.70;99.90;;;;;;4985649;28;20022;-77
2022/04/01 06:58:12;;;;;;;6.72;2.70;;;3.60;99.90;;;;;;4967223;28;20038;-78
2022/04/01 07:00:40;;;;;;;4.97;2.70;;;3.70;99.90;;;;;;4972628;28;20031;-78
2022/04/01 07:03:07;;;;;;;5.53;2.33;;;3.70;99.90;;;;;;4965857;28;20165;-78
2022/04/01 07:05:36;;;;;;;5.15;2.63;;;3.70;99.90;;;;;;4966433;28;20031;-78
2022/04/01 07:08:03;;;;;;;8.05;2.72;;;3.70;99.90;;;;;;4985702;28;20031;-79
2022/04/01 07:10:29;;;;;;;6.03;2.35;;;3.70;99.90;;;;;;4967544;28;20082;-78
2022/04/01 07:12:55;;;;;;;6.03;2.47;;;3.80;99.90;;;;;;4984229;28;20034;-78
2022/04/01 07:15:20;;;;;;;4.18;2.40;;;3.80;99.90;;;;;;4968548;28;20384;-77
2022/04/01 07:17:46;;;;;;;10.55;3.38;;;3.80;99.90;;;;;;4966022;28;20030;-77
2022/04/01 07:20:13;;;;;;;7.38;3.08;;;3.90;99.90;;;;;;4983522;28;20034;-77
2022/04/01 07:22:40;;;;;;;8.77;2.60;;;3.90;99.90;;;;;;4957987;28;20145;-79
2022/04/01 07:25:08;;;;;;;5.18;2.40;;;3.90;99.90;;;;;;4964793;28;20046;-77
2022/04/01 07:27:35;;;;;;;9.70;3.00;;;3.90;99.90;;;;;;4970617;28;20199;-78
2022/04/01 07:30:01;;;;;;;8.20;2.90;;;4.00;99.90;;;;;;4980299;28;20090;-79
2022/04/01 07:32:34;;;;;;;6.53;2.72;;;4.10;99.90;;;;;;4982785;28;20026;-77
2022/04/01 07:35:01;;;;;;;4.68;2.45;;;4.10;99.90;;;;;;4964686;28;20057;-77
2022/04/01 07:37:28;;;;;;;4.50;2.20;;;4.10;99.90;;;;;;4982341;28;20056;-76
2022/04/01 07:39:57;;;;;;;4.90;2.42;;;4.20;99.90;;;;;;4964168;28;20137;-77
2022/04/01 07:42:27;;;;;;;8.85;3.10;;;4.10;99.90;;;;;;4980346;28;20026;-77
2022/04/01 07:44:54;;;;;;;7.47;2.65;;;4.20;99.90;;;;;;4970425;28;20031;-77
2022/04/01 07:47:21;;;;;;;5.88;2.92;;;4.20;99.90;;;;;;4965832;28;20384;-77
2022/04/01 07:49:48;;;;;;;5.72;2.60;;;4.30;99.90;;;;;;4965348;28;20050;-77
2022/04/01 07:52:15;;;;;;;6.35;2.92;;;4.30;99.90;;;;;;4996361;28;20034;-77
2022/04/01 07:54:42;;;;;;;3.95;2.63;;;4.30;99.90;;;;;;4964010;28;20035;-78
2022/04/01 07:57:10;;;;;;;4.53;2.70;;;4.30;99.90;;;;;;4961494;28;20089;-77
2022/04/01 07:59:37;;;;;;;7.38;2.72;;;4.30;99.90;;;;;;4964296;28;20026;-77
2022/04/01 08:02:05;;;;;;;7.72;2.75;;;4.30;99.90;;;;;;4958793;28;20054;-77
2022/04/01 08:04:31;;;;;;;6.57;2.75;;;4.20;99.90;;;;;;4965142;28;20069;-77
2022/04/01 08:06:58;;;;;;;7.00;3.00;;;4.40;99.90;;;;;;4963622;28;20054;-77
2022/04/01 08:09:24;;;;;;;4.47;2.40;;;4.40;99.70;;;;;;4964117;28;20023;-77
2022/04/01 08:11:53;;;;;;;8.63;3.05;;;4.50;99.30;;;;;;4963759;28;20105;-76
2022/04/01 08:14:20;;;;;;;6.07;3.10;;;4.50;99.90;;;;;;4968146;28;20035;-77
2022/04/01 08:16:47;;;;;;;5.93;2.78;;;4.50;98.80;;;;;;4970451;28;20027;-77
2022/04/01 08:19:13;;;;;;;5.15;2.80;;;4.50;99.10;;;;;;4972479;28;20038;-78
2022/04/01 08:21:39;;;;;;;7.35;3.45;;;4.60;99.30;;;;;;4974476;28;20109;-78
2022/04/01 08:24:07;;;;;;;5.03;2.60;;;4.60;98.50;;;;;;4965938;28;20033;-77
2022/04/01 08:26:33;;;;;;;7.53;3.47;;;4.70;99.00;;;;;;4971567;28;20034;-78
2022/04/01 08:29:00;;;;;;;7.25;2.83;;;4.60;97.00;;;;;;4971842;28;20293;-77
2022/04/01 08:31:26;;;;;;;6.20;2.53;;;4.70;95.60;;;;;;4965341;28;20039;-77
2022/04/01 08:33:54;;;;;;;7.25;2.90;;;4.70;96.90;;;;;;4978361;28;20585;-77
2022/04/01 08:36:20;;;;;;;7.30;2.85;;;4.80;97.20;;;;;;4999693;28;20055;-77
2022/04/01 08:38:46;;;;;;;7.38;3.03;;;4.80;97.10;;;;;;4995438;28;20030;-77
2022/04/01 08:41:17;;;;;;;4.68;2.60;;;4.90;97.90;;;;;;4981461;28;20026;-77
2022/04/01 08:43:48;;;;;;;6.78;3.08;;;5.00;98.30;;;;;;4991714;28;20023;-78
2022/04/01 08:46:15;;;;;;;8.48;2.90;;;5.10;95.70;;;;;;4991211;28;20104;-77
2022/04/01 08:48:41;;;;;;;5.63;2.97;;;5.10;95.20;;;;;;4963034;28;20044;-78
2022/04/01 08:51:07;;;;;;;5.70;2.85;;;5.20;95.80;;;;;;4993669;28;20036;-78
2022/04/01 08:53:37;;;;;;;8.90;3.33;;;5.10;96.70;;;;;;4982290;28;20580;-77
2022/04/01 08:56:04;;;;;;;6.82;3.00;;;5.00;95.40;;;;;;4975457;28;20060;-79
2022/04/01 08:58:30;;;;;;;6.43;2.65;;;5.00;95.50;;;;;;4991241;28;20078;-77
2022/04/01 09:00:58;;;;;;;7.38;3.25;;;5.10;93.80;;;;;;4991715;28;20081;-78
2022/04/01 09:03:24;;;;;;;6.53;3.10;;;5.10;93.70;;;;;;4974319;28;20498;-77
2022/04/01 09:05:56;;;;;;;8.82;3.05;;;5.30;94.40;;;;;;4988180;28;20029;-76
2022/04/01 09:08:30;;;;;;;8.50;3.00;;;5.30;92.10;;;;;;4993719;28;20029;-78
2022/04/01 09:11:18;;;;;;;5.85;2.83;;;5.30;93.60;;;;;;4973968;28;20029;-78
2022/04/01 09:13:47;;;;;;;6.00;3.42;;;5.30;89.30;;;;;;4958809;28;20118;-79
2022/04/01 09:16:32;;;;;;;6.00;3.10;;;5.30;92.40;;;;;;4976148;28;20030;-78
2022/04/01 09:19:05;;;;;;;5.47;2.88;;;5.20;91.30;;;;;;4961388;28;20125;-76
2022/04/01 09:21:34;;;;;;;5.97;2.88;;;5.30;90.40;;;;;;4985548;28;20454;-77
2022/04/01 09:24:01;;;;;;;9.63;2.90;;;5.40;90.30;;;;;;4974323;28;20109;-77
2022/04/01 09:26:35;;;;;;;5.15;2.83;;;5.30;88.10;;;;;;4970892;28;20022;-78
2022/04/01 09:29:03;;;;;;;5.32;2.78;;;5.40;87.10;;;;;;4985528;28;20491;-77
2022/04/01 09:31:35;;;;;;;6.43;2.90;;;5.50;91.30;;;;;;4969977;28;20038;-76
2022/04/01 09:34:06;;;;;;;6.30;3.00;;;5.50;86.50;;;;;;4999734;28;20083;-78
2022/04/01 09:36:38;;;;;;;;;;;5.50;87.80;;;;;;4958105;28;20042;-78
2022/04/01 09:39:04;;;;;;;8.77;2.63;;;5.60;89.50;;;;;;4971044;28;19910;-77
2022/04/01 09:41:35;;;;;;;8.20;2.75;;;5.60;90.90;;;;;;4988561;28;20045;-78
2022/04/01 09:44:23;;;;;;;7.15;2.60;;;5.60;87.40;;;;;;4976605;28;20022;-77
2022/04/01 09:47:03;;;;;;;6.75;2.38;;;5.50;89.40;;;;;;4985398;28;20023;-77
2022/04/01 09:49:33;;;;;;;5.23;2.00;;;5.50;88.60;;;;;;4968188;28;20490;-78
2022/04/01 09:52:00;;;;;;;5.10;2.35;;;5.50;90.60;;;;;;4967948;28;20201;-78
2022/04/01 09:54:26;;;;;;;6.22;2.30;;;5.50;92.30;;;;;;4985460;28;20085;-78
2022/04/01 09:56:54;;;;;;;8.30;2.40;;;5.60;91.00;;;;;;4987207;28;20502;-78
2022/04/01 09:59:22;;;;;;;4.45;2.50;;;5.60;91.20;;;;;;4949663;28;20574;-77
2022/04/01 10:01:48;;;;;;;4.28;2.22;;;5.70;91.10;;;;;;4985765;28;20080;-79
2022/04/01 10:04:14;;;;;;;4.07;1.73;;;5.70;88.40;;;;;;4970236;28;20038;-78
2022/04/01 10:06:41;;;;;;;5.85;2.70;;;5.80;85.10;;;;;;4956833;28;20023;-78
2022/04/01 10:09:11;;;;;;;5.72;2.30;;;5.80;86.60;;;;;;4960260;28;20497;-77
2022/04/01 10:11:39;;;;;;;4.32;2.40;;;5.80;87.50;;;;;;4959712;28;20034;-77
2022/04/01 10:14:41;;;;;;;4.82;2.28;;;5.90;86.40;;;;;;4952668;28;20034;-78
2022/04/01 10:17:11;;;;;;;5.28;2.20;;;6.00;87.80;;;;;;4880874;29;20128;-78
2022/04/01 10:19:41;;;;;;;4.43;2.25;;;6.10;88.20;;;;;;4970070;28;20065;-78
2022/04/01 10:22:07;;;;;;;4.82;2.20;;;6.00;83.00;;;;;;4964378;28;20026;-77
2022/04/01 10:25:11;;;;;;;4.88;2.35;;;5.90;87.60;;;;;;4965449;28;20487;-77
2022/04/01 10:27:40;;;;;;;3.70;2.05;;;5.80;85.70;;;;;;4964031;28;20037;-77
2022/04/01 10:30:13;;;;;;;4.53;2.55;;;5.80;87.90;;;;;;4966338;28;20027;-78
2022/04/01 10:32:47;;;;;;;4.45;2.22;;;5.80;88.80;;;;;;4982006;28;20108;-77
2022/04/01 10:35:32;;;;;;;5.63;1.77;;;6.00;89.20;;;;;;4965843;28;20090;-77
2022/04/01 10:38:10;;;;;;;5.32;2.50;;;6.00;86.90;;;;;;4966842;28;20022;-77
2022/04/01 10:40:41;;;;;;;6.07;2.42;;;6.00;86.70;;;;;;4984984;28;20126;-77
2022/04/01 10:43:22;;;;;;;3.70;1.80;;;6.00;89.80;;;;;;4966106;28;20121;-77
2022/04/01 10:46:03;;;;;;;7.40;2.10;;;6.00;88.90;;;;;;4963340;28;20117;-77
2022/04/01 10:51:37;;;;;;;5.97;2.05;;;6.00;86.60;;;;;;4970585;28;20181;-77
2022/04/01 10:54:23;;;;;;;3.33;1.70;;;5.90;89.60;;;;;;4966797;28;20034;-76
2022/04/01 10:56:57;;;;;;;4.80;1.50;;;5.90;90.80;;;;;;4955249;28;20039;-77
2022/04/01 10:59:25;;;;;;;7.97;2.00;;;5.80;87.90;;;;;;4966087;28;20073;-79
2022/04/01 11:01:56;;;;;;;5.30;1.60;;;5.70;90.30;;;;;;4971638;28;20089;-77
2022/04/01 11:04:21;;;;;;;4.78;1.50;;;5.80;85.10;;;;;;4965880;28;20026;-77
2022/04/01 11:06:53;;;;;;;4.03;1.65;;;5.90;84.50;;;;;;4966176;28;20229;-79
2022/04/01 11:09:50;;;;;;;4.72;2.03;;;5.90;85.50;;;;;;4966001;28;20195;-77
2022/04/01 11:12:19;;;;;;;3.58;1.45;;;6.00;85.40;;;;;;4983134;28;20041;-79
2022/04/01 11:14:56;;;;;;;7.40;2.13;;;6.00;86.80;;;;;;4966199;28;20026;-78
2022/04/01 11:17:23;;;;;;;5.50;2.05;;;6.00;87.70;;;;;;4980297;28;20562;-78
2022/04/01 11:20:04;;;;;;;6.28;1.60;;;5.90;88.60;;;;;;4964987;28;20110;-78
2022/04/01 11:22:59;;;;;;;4.18;1.55;;;5.90;88.90;;;;;;4949047;28;20414;-78
2022/04/01 11:25:25;;;;;;;6.38;1.85;;;5.90;90.00;;;;;;4979403;28;20026;-77
2022/04/01 11:28:09;;;;;;;8.02;2.00;;;6.00;88.40;;;;;;4962710;28;20039;-78
2022/04/01 11:30:51;;;;;;;4.78;1.88;;;6.10;89.00;;;;;;4962513;28;20931;-77
2022/04/01 11:33:20;;;;;;;5.72;1.55;;;6.10;88.60;;;;;;4981158;28;20046;-78
2022/04/01 11:35:51;;;;;;;4.00;1.55;;;6.20;86.60;;;;;;4966056;28;20023;-78
2022/04/01 11:38:19;;;;;;;5.53;1.80;;;6.10;87.70;;;;;;4982413;28;20046;-78
2022/04/01 11:40:51;;;;;;;5.60;1.65;;;6.00;88.80;;;;;;4952841;28;20503;-78
2022/04/01 11:43:19;;;;;;;4.88;1.85;;;6.00;84.80;;;;;;4962917;28;20030;-77
2022/04/01 11:45:57;;;;;;;2.90;1.60;;;6.10;88.40;;;;;;4980208;28;20034;-77
2022/04/01 11:48:27;;;;;;;3.40;1.70;;;6.20;87.20;;;;;;4992786;28;20049;-78
2022/04/01 11:51:19;;;;;;;6.88;1.63;;;6.10;90.60;;;;;;4970006;28;20033;-78
2022/04/01 11:53:47;;;;;;;;;;;6.00;84.30;;;;;;4987601;28;20022;-79
2022/04/01 11:56:15;;;;;;;3.72;2.08;;;6.00;88.20;;;;;;4999634;28;19925;-78
2022/04/01 11:58:46;;;;;;;4.63;2.20;;;6.10;85.30;;;;;;4970935;28;20511;-78
2022/04/01 12:01:13;;;;;;;2.47;1.60;;;6.30;83.60;;;;;;4986497;28;20037;-77
2022/04/01 12:03:38;;;;;;;3.80;2.17;;;6.40;84.90;;;;;;4997093;28;20023;-78
2022/04/01 12:08:49;;;;;;;3.72;2.03;;;6.40;85.40;;;;;;4972213;28;20069;-78
2022/04/01 12:11:16;;;;;;;4.07;1.73;;;6.30;86.40;;;;;;4954199;28;20035;-78
2022/04/01 12:13:50;;;;;;;4.20;1.75;;;6.30;88.90;;;;;;4986897;28;20154;-78
2022/04/01 12:16:18;;;;;;;3.80;1.73;;;6.30;85.90;;;;;;4972175;28;20121;-78
2022/04/01 12:18:49;;;;;;;4.28;1.83;;;6.30;84.80;;;;;;4970016;28;20026;-78
2022/04/01 12:21:22;;;;;;;5.63;2.00;;;6.30;86.10;;;;;;4969196;28;20185;-78
2022/04/01 12:23:49;;;;;;;3.30;1.80;;;6.30;88.50;;;;;;4968119;28;20033;-78
2022/04/01 12:26:25;;;;;;;6.43;1.95;;;6.30;85.60;;;;;;4969038;28;20027;-77
2022/04/01 12:28:52;;;;;;;4.15;1.95;;;6.30;90.70;;;;;;4970106;28;20030;-78
2022/04/01 12:31:20;;;;;;;5.72;2.30;;;6.20;87.80;;;;;;4951976;28;20046;-77
2022/04/01 12:33:49;;;;;;;6.55;2.08;;;6.30;84.20;;;;;;4967412;28;20117;-78
2022/04/01 12:36:28;;;;;;;3.95;1.90;;;6.20;83.70;;;;;;4958666;28;20039;-81
2022/04/01 12:39:09;;;;;;;7.30;1.63;;;6.20;86.00;;;;;;4968475;28;20914;-77
2022/04/01 12:41:35;;;;;;;;;;;6.20;86.40;;;;;;4967220;28;20034;-77
2022/04/01 12:44:12;;;;;;;3.08;1.45;;;6.30;85.40;;;;;;4999274;28;19917;-78
2022/04/01 12:46:37;;;;;;;5.03;2.10;;;6.20;84.30;;;;;;4976749;28;20067;-78
2022/04/01 12:49:18;;;;;;;5.38;1.80;;;6.10;86.40;;;;;;4958719;28;20035;-77
2022/04/01 12:51:51;;;;;;;4.32;1.75;;;6.10;90.00;;;;;;4970753;28;20023;-78
2022/04/01 12:54:33;;;;;;;4.78;1.83;;;6.10;87.40;;;;;;4985985;28;20048;-78
2022/04/01 12:57:00;;;;;;;;;;;5.90;86.40;;;;;;4967527;28;20034;-78
2022/04/01 12:59:26;;;;;;;3.95;1.80;;;5.80;88.00;;;;;;4966440;28;19914;-78
2022/04/01 13:01:58;;;;;;;5.25;2.35;;;5.90;88.30;;;;;;4964587;28;20048;-77
2022/04/01 13:04:24;;;;;;;20.25;8.82;;;6.00;85.30;;;;;;4969220;28;20113;-77
2022/04/01 13:07:12;;;;;;;86.43;34.70;;;6.00;85.90;;;;;;4966634;28;20200;-78
2022/04/01 13:09:54;;;;;;;34.50;16.52;;;6.20;84.50;;;;;;4967511;28;20050;-78
2022/04/01 13:12:23;;;;;;;12.50;8.25;;;6.10;83.70;;;;;;4984299;28;20034;-77
2022/04/01 13:15:06;;;;;;;6.57;2.28;;;6.10;89.10;;;;;;4966974;28;20403;-77
2022/04/01 13:17:56;;;;;;;3.13;1.80;;;6.30;84.20;;;;;;4969827;28;20023;-78
2022/04/01 13:20:26;;;;;;;3.78;1.83;;;6.40;81.90;;;;;;4951018;28;20041;-77
2022/04/01 13:22:52;;;;;;;6.95;2.10;;;6.30;82.20;;;;;;4990077;28;20041;-80
2022/04/01 13:25:19;;;;;;;6.57;2.10;;;6.30;83.00;;;;;;4989193;28;20025;-77
2022/04/01 13:27:46;;;;;;;5.95;1.88;;;6.30;82.50;;;;;;4991227;28;20035;-78